sensor_id;sensor_type;location;lat;lon;timestamp;temperature;humidity
29281;DHT22;25048;49.590;11.026;2022-10-16T00:01:40;15.00;99.90
29281;DHT22;25048;49.590;11.026;2022-10-16T00:04:08;15.00;99.90
29281;DHT22;25048;49.590;11.026;2022-10-16T00:06:36;15.00;99.90
29281;DHT22;25048;49.590;11.026;2022-10-16T00:09:05;15.00;99.90
29281;DHT22;25048;49.590;11.026;2022-10-16T00:11:35;15.00;99.90
29281;DHT22;25048;49.590;11.026;2022-10-16T00:14:07;15.00;99.90
29281;DHT22;25048;49.590;11.026;2022-10-16T00:16:34;14.90;99.90
29281;DHT22;25048;49.590;11.026;2022-10-16T00:19:02;15.00;99.90
29281;DHT22;25048;49.590;11.026;2022-10-16T00:21:31;15.00;99.90
29281;DHT22;25048;49.590;11.026;2022-10-16T00:24:02;15.00;99.90
29281;DHT22;25048;49.590;11.026;2022-10-16T00:26:32;15.00;99.90
29281;DHT22;25048;49.590;11.026;2022-10-16T00:29:00;15.00;99.90
29281;DHT22;25048;49.590;11.026;2022-10-16T00:31:28;15.00;99.90
29281;DHT22;25048;49.590;11.026;2022-10-16T00:33:56;15.00;99.90
29281;DHT22;25048;49.590;11.026;2022-10-16T00:36:25;14.90;99.90
29281;DHT22;25048;49.590;11.026;2022-10-16T00:38:55;14.90;99.90
29281;DHT22;25048;49.590;11.026;2022-10-16T00:41:25;14.90;99.90
29281;DHT22;25048;49.590;11.026;2022-10-16T00:43:58;14.90;99.90
29281;DHT22;25048;49.590;11.026;2022-10-16T00:46:39;14.90;99.90
29281;DHT22;25048;49.590;11.026;2022-10-16T00:49:18;14.90;99.90
29281;DHT22;25048;49.590;11.026;2022-10-16T00:51:51;14.90;99.90
29281;DHT22;25048;49.590;11.026;2022-10-16T00:54:31;14.90;99.90
29281;DHT22;25048;49.590;11.026;2022-10-16T00:56:55;14.80;99.90
29281;DHT22;25048;49.590;11.026;2022-10-16T00:59:26;14.80;99.90
29281;DHT22;25048;49.590;11.026;2022-10-16T01:01:55;14.80;99.90
29281;DHT22;25048;49.590;11.026;2022-10-16T01:04:24;14.80;99.90
29281;DHT22;25048;49.590;11.026;2022-10-16T01:07:14;14.80;99.90
29281;DHT22;25048;49.590;11.026;2022-10-16T01:10:03;14.90;99.90
29281;DHT22;25048;49.590;11.026;2022-10-16T01:12:39;14.90;99.90
29281;DHT22;25048;49.590;11.026;2022-10-16T01:15:29;15.00;99.90
29281;DHT22;25048;49.590;11.026;2022-10-16T01:18:21;15.00;99.90
29281;DHT22;25048;49.590;11.026;2022-10-16T01:20:58;15.00;99.90
29281;DHT22;25048;49.590;11.026;2022-10-16T01:23:52;15.00;99.90
29281;DHT22;25048;49.590;11.026;2022-10-16T01:29:48;15.00;99.90
29281;DHT22;25048;49.590;11.026;2022-10-16T01:32:38;15.10;99.90
29281;DHT22;25048;49.590;11.026;2022-10-16T01:34:52;15.00;99.90
29281;DHT22;25048;49.590;11.026;2022-10-16T01:38:10;15.00;99.90
29281;DHT22;25048;49.590;11.026;2022-10-16T01:39:58;15.00;99.90
29281;DHT22;25048;49.590;11.026;2022-10-16T01:42:31;15.00;99.90
29281;DHT22;25048;49.590;11.026;2022-10-16T01:44:59;15.00;99.90
29281;DHT22;25048;49.590;11.026;2022-10-16T01:47:29;15.00;99.90
29281;DHT22;25048;49.590;11.026;2022-10-16T01:49:58;15.00;99.90
29281;DHT22;25048;49.590;11.026;2022-10-16T01:52:28;15.00;99.90
29281;DHT22;25048;49.590;11.026;2022-10-16T01:54:57;15.10;99.90
29281;DHT22;25048;49.590;11.026;2022-10-16T01:57:26;15.10;99.90
29281;DHT22;25048;49.590;11.026;2022-10-16T01:59:56;15.10;99.90
29281;DHT22;25048;49.590;11.026;2022-10-16T02:02:26;15.10;99.90
29281;DHT22;25048;49.590;11.026;2022-10-16T02:05:05;15.00;99.90
29281;DHT22;25048;49.590;11.026;2022-10-16T02:07:32;15.10;99.90
29281;DHT22;25048;49.590;11.026;2022-10-16T02:10:00;15.10;99.90
29281;DHT22;25048;49.590;11.026;2022-10-16T02:12:31;15.10;99.90
29281;DHT22;25048;49.590;11.026;2022-10-16T02:14:59;15.10;99.90
29281;DHT22;25048;49.590;11.026;2022-10-16T02:17:27;15.20;99.90
29281;DHT22;25048;49.590;11.026;2022-10-16T02:19:56;15.10;99.90
29281;DHT22;25048;49.590;11.026;2022-10-16T02:22:32;15.10;99.90
29281;DHT22;25048;49.590;11.026;2022-10-16T02:25:11;15.10;99.90
29281;DHT22;25048;49.590;11.026;2022-10-16T02:30:39;15.20;99.90
29281;DHT22;25048;49.590;11.026;2022-10-16T02:33:09;15.20;99.90
29281;DHT22;25048;49.590;11.026;2022-10-16T02:35:38;15.20;99.90
29281;DHT22;25048;49.590;11.026;2022-10-16T02:38:07;15.20;99.90
29281;DHT22;25048;49.590;11.026;2022-10-16T02:40:36;15.20;99.90
29281;DHT22;25048;49.590;11.026;2022-10-16T02:43:04;15.20;99.90
29281;DHT22;25048;49.590;11.026;2022-10-16T02:45:33;15.20;99.90
29281;DHT22;25048;49.590;11.026;2022-10-16T02:48:00;15.10;99.90
29281;DHT22;25048;49.590;11.026;2022-10-16T02:50:28;15.20;99.90
29281;DHT22;25048;49.590;11.026;2022-10-16T02:52:55;15.10;99.90
29281;DHT22;25048;49.590;11.026;2022-10-16T02:55:23;15.10;99.90
29281;DHT22;25048;49.590;11.026;2022-10-16T02:57:50;15.10;99.90
29281;DHT22;25048;49.590;11.026;2022-10-16T03:00:18;15.10;99.90
29281;DHT22;25048;49.590;11.026;2022-10-16T03:02:46;15.10;99.90
29281;DHT22;25048;49.590;11.026;2022-10-16T03:05:14;15.10;99.90
29281;DHT22;25048;49.590;11.026;2022-10-16T03:07:41;15.10;99.90
29281;DHT22;25048;49.590;11.026;2022-10-16T03:10:09;15.10;99.90
29281;DHT22;25048;49.590;11.026;2022-10-16T03:12:37;15.00;99.90
29281;DHT22;25048;49.590;11.026;2022-10-16T03:15:04;15.00;99.90
29281;DHT22;25048;49.590;11.026;2022-10-16T03:17:33;15.00;99.90
29281;DHT22;25048;49.590;11.026;2022-10-16T03:20:01;15.00;99.90
29281;DHT22;25048;49.590;11.026;2022-10-16T03:22:28;15.00;99.90
29281;DHT22;25048;49.590;11.026;2022-10-16T03:24:56;15.00;99.90
29281;DHT22;25048;49.590;11.026;2022-10-16T03:27:23;14.90;99.90
29281;DHT22;25048;49.590;11.026;2022-10-16T03:29:51;14.90;99.90
29281;DHT22;25048;49.590;11.026;2022-10-16T03:32:19;14.90;99.90
29281;DHT22;25048;49.590;11.026;2022-10-16T03:34:46;14.90;99.90
29281;DHT22;25048;49.590;11.026;2022-10-16T03:37:14;14.90;99.90
29281;DHT22;25048;49.590;11.026;2022-10-16T03:39:41;14.80;99.90
29281;DHT22;25048;49.590;11.026;2022-10-16T03:42:09;14.80;99.90
29281;DHT22;25048;49.590;11.026;2022-10-16T03:44:36;14.80;99.90
29281;DHT22;25048;49.590;11.026;2022-10-16T03:47:04;14.80;99.90
29281;DHT22;25048;49.590;11.026;2022-10-16T03:49:31;14.80;99.90
29281;DHT22;25048;49.590;11.026;2022-10-16T03:51:59;14.80;99.90
29281;DHT22;25048;49.590;11.026;2022-10-16T03:54:26;14.80;99.90
29281;DHT22;25048;49.590;11.026;2022-10-16T03:56:54;14.90;99.90
29281;DHT22;25048;49.590;11.026;2022-10-16T03:59:21;14.90;99.90
29281;DHT22;25048;49.590;11.026;2022-10-16T04:01:49;14.90;99.90
29281;DHT22;25048;49.590;11.026;2022-10-16T04:04:16;14.90;99.90
29281;DHT22;25048;49.590;11.026;2022-10-16T04:06:44;14.90;99.90
29281;DHT22;25048;49.590;11.026;2022-10-16T04:09:12;15.00;99.90
29281;DHT22;25048;49.590;11.026;2022-10-16T04:11:39;15.00;99.90
29281;DHT22;25048;49.590;11.026;2022-10-16T04:14:07;15.00;99.90
29281;DHT22;25048;49.590;11.026;2022-10-16T04:16:34;15.00;99.90
29281;DHT22;25048;49.590;11.026;2022-10-16T04:19:02;15.00;99.90
29281;DHT22;25048;49.590;11.026;2022-10-16T04:21:29;15.00;99.90
29281;DHT22;25048;49.590;11.026;2022-10-16T04:23:57;15.00;99.90
29281;DHT22;25048;49.590;11.026;2022-10-16T04:26:24;15.00;99.90
29281;DHT22;25048;49.590;11.026;2022-10-16T04:28:52;15.00;99.90
29281;DHT22;25048;49.590;11.026;2022-10-16T04:31:20;15.10;99.90
29281;DHT22;25048;49.590;11.026;2022-10-16T04:33:48;15.10;99.90
29281;DHT22;25048;49.590;11.026;2022-10-16T04:36:16;15.10;99.90
29281;DHT22;25048;49.590;11.026;2022-10-16T04:38:43;15.10;99.90
29281;DHT22;25048;49.590;11.026;2022-10-16T04:41:11;15.10;99.90
29281;DHT22;25048;49.590;11.026;2022-10-16T04:43:38;15.10;99.90
29281;DHT22;25048;49.590;11.026;2022-10-16T04:46:06;15.10;99.90
29281;DHT22;25048;49.590;11.026;2022-10-16T04:48:33;15.00;99.90
29281;DHT22;25048;49.590;11.026;2022-10-16T04:51:01;15.00;99.90
29281;DHT22;25048;49.590;11.026;2022-10-16T04:53:28;15.00;99.90
29281;DHT22;25048;49.590;11.026;2022-10-16T04:55:56;15.00;99.90
29281;DHT22;25048;49.590;11.026;2022-10-16T04:58:23;15.00;99.90
29281;DHT22;25048;49.590;11.026;2022-10-16T05:00:51;15.00;99.90
29281;DHT22;25048;49.590;11.026;2022-10-16T05:03:18;15.00;99.90
29281;DHT22;25048;49.590;11.026;2022-10-16T05:05:46;14.90;99.90
29281;DHT22;25048;49.590;11.026;2022-10-16T05:08:15;14.90;99.90
29281;DHT22;25048;49.590;11.026;2022-10-16T05:10:43;14.90;99.90
29281;DHT22;25048;49.590;11.026;2022-10-16T05:13:12;14.90;99.90
29281;DHT22;25048;49.590;11.026;2022-10-16T05:15:39;14.80;99.90
29281;DHT22;25048;49.590;11.026;2022-10-16T05:18:07;14.80;99.90
29281;DHT22;25048;49.590;11.026;2022-10-16T05:20:35;14.80;99.90
29281;DHT22;25048;49.590;11.026;2022-10-16T05:23:03;14.80;99.90
29281;DHT22;25048;49.590;11.026;2022-10-16T05:25:30;14.70;99.90
29281;DHT22;25048;49.590;11.026;2022-10-16T05:27:58;14.70;99.90
29281;DHT22;25048;49.590;11.026;2022-10-16T05:30:25;14.70;99.90
29281;DHT22;25048;49.590;11.026;2022-10-16T05:32:53;14.70;99.90
29281;DHT22;25048;49.590;11.026;2022-10-16T05:35:21;14.60;99.90
29281;DHT22;25048;49.590;11.026;2022-10-16T05:37:49;14.60;99.90
29281;DHT22;25048;49.590;11.026;2022-10-16T05:40:16;14.60;99.90
29281;DHT22;25048;49.590;11.026;2022-10-16T05:42:44;14.60;99.90
29281;DHT22;25048;49.590;11.026;2022-10-16T05:45:12;14.60;99.90
29281;DHT22;25048;49.590;11.026;2022-10-16T05:47:39;14.60;99.90
29281;DHT22;25048;49.590;11.026;2022-10-16T05:50:08;14.60;99.90
29281;DHT22;25048;49.590;11.026;2022-10-16T05:52:35;14.60;99.90
29281;DHT22;25048;49.590;11.026;2022-10-16T05:55:03;14.60;99.90
29281;DHT22;25048;49.590;11.026;2022-10-16T05:57:31;14.60;99.90
29281;DHT22;25048;49.590;11.026;2022-10-16T05:59:58;14.60;99.90
29281;DHT22;25048;49.590;11.026;2022-10-16T06:02:26;14.70;99.90
29281;DHT22;25048;49.590;11.026;2022-10-16T06:04:53;14.70;99.90
29281;DHT22;25048;49.590;11.026;2022-10-16T06:07:21;14.70;99.90
29281;DHT22;25048;49.590;11.026;2022-10-16T06:09:50;14.70;99.90
29281;DHT22;25048;49.590;11.026;2022-10-16T06:12:18;14.70;99.90
29281;DHT22;25048;49.590;11.026;2022-10-16T06:14:46;14.70;99.90
29281;DHT22;25048;49.590;11.026;2022-10-16T06:17:14;14.70;99.90
29281;DHT22;25048;49.590;11.026;2022-10-16T06:19:42;14.80;99.90
29281;DHT22;25048;49.590;11.026;2022-10-16T06:22:09;14.80;99.90
29281;DHT22;25048;49.590;11.026;2022-10-16T06:24:37;14.80;99.90
29281;DHT22;25048;49.590;11.026;2022-10-16T06:27:05;14.80;99.90
29281;DHT22;25048;49.590;11.026;2022-10-16T06:29:32;14.80;99.90
29281;DHT22;25048;49.590;11.026;2022-10-16T06:32:00;14.90;99.90
29281;DHT22;25048;49.590;11.026;2022-10-16T06:34:27;14.90;99.90
29281;DHT22;25048;49.590;11.026;2022-10-16T06:36:55;14.80;99.90
29281;DHT22;25048;49.590;11.026;2022-10-16T06:39:22;14.90;99.90
29281;DHT22;25048;49.590;11.026;2022-10-16T06:41:50;14.90;99.90
29281;DHT22;25048;49.590;11.026;2022-10-16T06:44:17;14.90;99.90
29281;DHT22;25048;49.590;11.026;2022-10-16T06:46:45;14.90;99.90
29281;DHT22;25048;49.590;11.026;2022-10-16T06:49:12;14.90;99.90
29281;DHT22;25048;49.590;11.026;2022-10-16T06:51:41;14.90;99.90
29281;DHT22;25048;49.590;11.026;2022-10-16T06:54:09;14.90;99.90
29281;DHT22;25048;49.590;11.026;2022-10-16T06:56:36;14.90;99.90
29281;DHT22;25048;49.590;11.026;2022-10-16T06:59:04;15.00;99.90
29281;DHT22;25048;49.590;11.026;2022-10-16T07:01:32;15.00;99.90
29281;DHT22;25048;49.590;11.026;2022-10-16T07:04:01;15.00;99.90
29281;DHT22;25048;49.590;11.026;2022-10-16T07:06:31;15.00;99.90
29281;DHT22;25048;49.590;11.026;2022-10-16T07:09:03;15.00;99.90
29281;DHT22;25048;49.590;11.026;2022-10-16T07:11:30;15.00;99.90
29281;DHT22;25048;49.590;11.026;2022-10-16T07:13:57;15.00;99.90
29281;DHT22;25048;49.590;11.026;2022-10-16T07:16:28;15.00;99.90
29281;DHT22;25048;49.590;11.026;2022-10-16T07:18:57;15.10;99.90
29281;DHT22;25048;49.590;11.026;2022-10-16T07:21:26;15.10;99.90
29281;DHT22;25048;49.590;11.026;2022-10-16T07:23:58;15.10;99.90
29281;DHT22;25048;49.590;11.026;2022-10-16T07:26:27;15.10;99.90
29281;DHT22;25048;49.590;11.026;2022-10-16T07:28:56;15.20;99.90
29281;DHT22;25048;49.590;11.026;2022-10-16T07:31:24;15.20;99.90
29281;DHT22;25048;49.590;11.026;2022-10-16T07:33:51;15.20;99.90
29281;DHT22;25048;49.590;11.026;2022-10-16T07:36:20;15.30;99.90
29281;DHT22;25048;49.590;11.026;2022-10-16T07:38:49;15.30;99.90
29281;DHT22;25048;49.590;11.026;2022-10-16T07:41:18;15.30;99.90
29281;DHT22;25048;49.590;11.026;2022-10-16T07:43:48;15.40;99.90
29281;DHT22;25048;49.590;11.026;2022-10-16T07:46:17;15.40;99.90
29281;DHT22;25048;49.590;11.026;2022-10-16T07:48:45;15.50;99.90
29281;DHT22;25048;49.590;11.026;2022-10-16T07:51:16;15.50;99.90
29281;DHT22;25048;49.590;11.026;2022-10-16T07:53:44;15.60;99.90
29281;DHT22;25048;49.590;11.026;2022-10-16T07:56:12;15.70;99.90
29281;DHT22;25048;49.590;11.026;2022-10-16T07:58:39;15.80;99.90
29281;DHT22;25048;49.590;11.026;2022-10-16T08:01:09;15.90;99.90
29281;DHT22;25048;49.590;11.026;2022-10-16T08:03:37;16.00;99.90
29281;DHT22;25048;49.590;11.026;2022-10-16T08:06:05;16.10;99.90
29281;DHT22;25048;49.590;11.026;2022-10-16T08:08:33;16.10;99.90
29281;DHT22;25048;49.590;11.026;2022-10-16T08:11:00;16.20;99.90
29281;DHT22;25048;49.590;11.026;2022-10-16T08:13:30;16.20;99.90
29281;DHT22;25048;49.590;11.026;2022-10-16T08:15:58;16.20;99.90
29281;DHT22;25048;49.590;11.026;2022-10-16T08:18:26;16.30;99.90
29281;DHT22;25048;49.590;11.026;2022-10-16T08:20:57;16.30;99.90
29281;DHT22;25048;49.590;11.026;2022-10-16T08:23:25;16.30;99.90
29281;DHT22;25048;49.590;11.026;2022-10-16T08:25:54;16.30;99.90
29281;DHT22;25048;49.590;11.026;2022-10-16T08:28:22;16.30;99.90
29281;DHT22;25048;49.590;11.026;2022-10-16T08:30:50;16.40;99.90
29281;DHT22;25048;49.590;11.026;2022-10-16T08:33:17;16.50;99.90
29281;DHT22;25048;49.590;11.026;2022-10-16T08:35:52;16.70;99.90
29281;DHT22;25048;49.590;11.026;2022-10-16T08:38:21;16.80;99.90
29281;DHT22;25048;49.590;11.026;2022-10-16T08:40:48;17.00;99.90
29281;DHT22;25048;49.590;11.026;2022-10-16T08:48:58;17.50;99.90
29281;DHT22;25048;49.590;11.026;2022-10-16T08:51:32;17.70;99.90
29281;DHT22;25048;49.590;11.026;2022-10-16T08:54:21;17.80;99.90
29281;DHT22;25048;49.590;11.026;2022-10-16T08:56:45;17.80;99.90
29281;DHT22;25048;49.590;11.026;2022-10-16T08:59:14;17.90;99.90
29281;DHT22;25048;49.590;11.026;2022-10-16T09:01:45;17.90;99.90
29281;DHT22;25048;49.590;11.026;2022-10-16T09:07:47;18.00;99.90
29281;DHT22;25048;49.590;11.026;2022-10-16T09:13:08;18.20;99.90
29281;DHT22;25048;49.590;11.026;2022-10-16T09:15:47;18.30;99.90
29281;DHT22;25048;49.590;11.026;2022-10-16T09:21:19;18.40;99.90
29281;DHT22;25048;49.590;11.026;2022-10-16T09:23:47;18.50;99.90
29281;DHT22;25048;49.590;11.026;2022-10-16T09:26:16;18.50;99.90
29281;DHT22;25048;49.590;11.026;2022-10-16T09:28:47;18.50;99.90
29281;DHT22;25048;49.590;11.026;2022-10-16T09:31:21;18.50;99.90
29281;DHT22;25048;49.590;11.026;2022-10-16T09:33:48;18.50;99.90
29281;DHT22;25048;49.590;11.026;2022-10-16T09:36:15;18.50;99.90
29281;DHT22;25048;49.590;11.026;2022-10-16T09:38:43;18.50;99.90
29281;DHT22;25048;49.590;11.026;2022-10-16T09:41:21;18.50;99.90
29281;DHT22;25048;49.590;11.026;2022-10-16T09:43:59;18.40;99.90
29281;DHT22;25048;49.590;11.026;2022-10-16T09:46:32;18.40;99.90
29281;DHT22;25048;49.590;11.026;2022-10-16T09:49:03;18.40;99.90
29281;DHT22;25048;49.590;11.026;2022-10-16T09:51:38;18.40;99.90
29281;DHT22;25048;49.590;11.026;2022-10-16T09:56:36;18.40;99.90
29281;DHT22;25048;49.590;11.026;2022-10-16T09:59:13;18.40;99.90
29281;DHT22;25048;49.590;11.026;2022-10-16T10:01:52;18.40;99.90
29281;DHT22;25048;49.590;11.026;2022-10-16T10:04:23;18.40;99.90
29281;DHT22;25048;49.590;11.026;2022-10-16T10:06:53;18.50;99.90
29281;DHT22;25048;49.590;11.026;2022-10-16T10:09:23;18.50;99.90
29281;DHT22;25048;49.590;11.026;2022-10-16T10:11:54;18.70;99.90
29281;DHT22;25048;49.590;11.026;2022-10-16T10:14:34;18.70;99.90
29281;DHT22;25048;49.590;11.026;2022-10-16T10:19:50;18.90;99.90
29281;DHT22;25048;49.590;11.026;2022-10-16T10:25:00;19.00;99.90
29281;DHT22;25048;49.590;11.026;2022-10-16T10:27:38;19.10;99.90
29281;DHT22;25048;49.590;11.026;2022-10-16T10:30:09;19.10;99.90
29281;DHT22;25048;49.590;11.026;2022-10-16T10:35:18;19.20;99.90
29281;DHT22;25048;49.590;11.026;2022-10-16T10:45:42;19.30;99.90
29281;DHT22;25048;49.590;11.026;2022-10-16T10:48:24;19.30;99.90
29281;DHT22;25048;49.590;11.026;2022-10-16T10:50:52;19.30;99.90
29281;DHT22;25048;49.590;11.026;2022-10-16T10:53:45;19.20;99.90
29281;DHT22;25048;49.590;11.026;2022-10-16T10:59:19;19.40;99.90
29281;DHT22;25048;49.590;11.026;2022-10-16T11:01:50;19.50;99.90
29281;DHT22;25048;49.590;11.026;2022-10-16T11:04:39;19.70;99.90
29281;DHT22;25048;49.590;11.026;2022-10-16T11:07:05;19.70;99.90
29281;DHT22;25048;49.590;11.026;2022-10-16T11:09:39;19.80;99.90
29281;DHT22;25048;49.590;11.026;2022-10-16T11:12:12;19.90;99.90
29281;DHT22;25048;49.590;11.026;2022-10-16T11:14:49;20.00;99.90
29281;DHT22;25048;49.590;11.026;2022-10-16T11:17:25;20.00;99.90
29281;DHT22;25048;49.590;11.026;2022-10-16T11:20:03;20.10;99.90
29281;DHT22;25048;49.590;11.026;2022-10-16T11:22:48;20.10;99.90
29281;DHT22;25048;49.590;11.026;2022-10-16T11:25:21;20.10;99.90
29281;DHT22;25048;49.590;11.026;2022-10-16T11:28:07;20.10;99.90
29281;DHT22;25048;49.590;11.026;2022-10-16T11:30:39;20.20;99.90
29281;DHT22;25048;49.590;11.026;2022-10-16T11:35:55;20.20;99.90
29281;DHT22;25048;49.590;11.026;2022-10-16T11:40:59;20.30;99.90
29281;DHT22;25048;49.590;11.026;2022-10-16T11:43:32;20.40;99.90
29281;DHT22;25048;49.590;11.026;2022-10-16T11:46:08;20.50;99.90
29281;DHT22;25048;49.590;11.026;2022-10-16T11:48:51;20.70;99.90
29281;DHT22;25048;49.590;11.026;2022-10-16T11:51:33;20.80;99.90
29281;DHT22;25048;49.590;11.026;2022-10-16T11:54:18;21.10;99.90
29281;DHT22;25048;49.590;11.026;2022-10-16T11:56:45;21.30;99.90
29281;DHT22;25048;49.590;11.026;2022-10-16T11:59:36;21.70;99.90
29281;DHT22;25048;49.590;11.026;2022-10-16T12:02:30;22.10;99.90
29281;DHT22;25048;49.590;11.026;2022-10-16T12:05:05;22.60;99.90
29281;DHT22;25048;49.590;11.026;2022-10-16T12:07:36;22.80;99.90
29281;DHT22;25048;49.590;11.026;2022-10-16T12:10:18;22.90;99.90
29281;DHT22;25048;49.590;11.026;2022-10-16T12:12:40;22.80;99.90
29281;DHT22;25048;49.590;11.026;2022-10-16T12:15:25;22.80;99.90
29281;DHT22;25048;49.590;11.026;2022-10-16T12:17:54;23.20;99.90
29281;DHT22;25048;49.590;11.026;2022-10-16T12:20:25;23.70;99.90
29281;DHT22;25048;49.590;11.026;2022-10-16T12:22:57;24.10;99.90
29281;DHT22;25048;49.590;11.026;2022-10-16T12:25:28;24.40;99.90
29281;DHT22;25048;49.590;11.026;2022-10-16T12:27:58;24.70;99.90
29281;DHT22;25048;49.590;11.026;2022-10-16T12:30:28;24.90;99.90
29281;DHT22;25048;49.590;11.026;2022-10-16T12:33:03;25.20;99.90
29281;DHT22;25048;49.590;11.026;2022-10-16T12:35:33;25.30;99.90
29281;DHT22;25048;49.590;11.026;2022-10-16T12:40:45;25.40;99.90
29281;DHT22;25048;49.590;11.026;2022-10-16T12:43:26;25.30;99.90
29281;DHT22;25048;49.590;11.026;2022-10-16T12:48:38;25.40;99.90
29281;DHT22;25048;49.590;11.026;2022-10-16T12:51:24;25.50;99.90
29281;DHT22;25048;49.590;11.026;2022-10-16T12:54:27;25.60;99.90
29281;DHT22;25048;49.590;11.026;2022-10-16T13:05:21;25.70;99.90
29281;DHT22;25048;49.590;11.026;2022-10-16T13:08:11;25.30;99.90
29281;DHT22;25048;49.590;11.026;2022-10-16T13:10:45;24.80;99.90
29281;DHT22;25048;49.590;11.026;2022-10-16T13:13:24;24.40;99.90
29281;DHT22;25048;49.590;11.026;2022-10-16T13:24:19;23.80;99.90
29281;DHT22;25048;49.590;11.026;2022-10-16T13:29:22;24.10;99.90
29281;DHT22;25048;49.590;11.026;2022-10-16T13:31:50;24.40;99.90
29281;DHT22;25048;49.590;11.026;2022-10-16T13:34:20;24.20;99.90
29281;DHT22;25048;49.590;11.026;2022-10-16T13:36:50;24.40;99.90
29281;DHT22;25048;49.590;11.026;2022-10-16T13:39:24;24.60;99.90
29281;DHT22;25048;49.590;11.026;2022-10-16T13:42:06;24.80;99.90
29281;DHT22;25048;49.590;11.026;2022-10-16T13:44:40;24.90;99.90
29281;DHT22;25048;49.590;11.026;2022-10-16T13:47:24;25.00;99.90
29281;DHT22;25048;49.590;11.026;2022-10-16T13:49:58;25.10;99.90
29281;DHT22;25048;49.590;11.026;2022-10-16T13:52:20;25.10;99.90
29281;DHT22;25048;49.590;11.026;2022-10-16T13:54:49;25.10;99.90
29281;DHT22;25048;49.590;11.026;2022-10-16T13:57:17;25.20;99.90
29281;DHT22;25048;49.590;11.026;2022-10-16T13:59:45;25.30;99.90
29281;DHT22;25048;49.590;11.026;2022-10-16T14:02:30;25.40;99.90
29281;DHT22;25048;49.590;11.026;2022-10-16T14:04:59;25.50;99.90
29281;DHT22;25048;49.590;11.026;2022-10-16T14:07:28;25.70;99.90
29281;DHT22;25048;49.590;11.026;2022-10-16T14:10:01;25.90;99.90
29281;DHT22;25048;49.590;11.026;2022-10-16T14:12:28;26.00;99.90
29281;DHT22;25048;49.590;11.026;2022-10-16T14:14:57;26.20;99.90
29281;DHT22;25048;49.590;11.026;2022-10-16T14:17:35;26.40;99.90
29281;DHT22;25048;49.590;11.026;2022-10-16T14:20:00;26.60;99.90
29281;DHT22;25048;49.590;11.026;2022-10-16T14:22:42;26.70;99.90
29281;DHT22;25048;49.590;11.026;2022-10-16T14:28:15;26.80;99.90
29281;DHT22;25048;49.590;11.026;2022-10-16T14:30:58;26.80;99.90
29281;DHT22;25048;49.590;11.026;2022-10-16T14:36:12;26.60;99.90
29281;DHT22;25048;49.590;11.026;2022-10-16T14:38:42;26.50;99.90
29281;DHT22;25048;49.590;11.026;2022-10-16T14:41:10;26.30;99.90
29281;DHT22;25048;49.590;11.026;2022-10-16T14:43:42;26.00;99.90
29281;DHT22;25048;49.590;11.026;2022-10-16T14:46:18;25.90;99.90
29281;DHT22;25048;49.590;11.026;2022-10-16T14:49:15;26.00;99.90
29281;DHT22;25048;49.590;11.026;2022-10-16T14:51:22;25.90;99.90
29281;DHT22;25048;49.590;11.026;2022-10-16T14:53:50;25.80;99.90
29281;DHT22;25048;49.590;11.026;2022-10-16T14:56:21;25.70;99.90
29281;DHT22;25048;49.590;11.026;2022-10-16T14:58:50;25.50;99.90
29281;DHT22;25048;49.590;11.026;2022-10-16T15:01:19;25.10;99.90
29281;DHT22;25048;49.590;11.026;2022-10-16T15:03:46;24.70;99.90
29281;DHT22;25048;49.590;11.026;2022-10-16T15:06:15;24.30;99.90
29281;DHT22;25048;49.590;11.026;2022-10-16T15:08:43;24.00;99.90
29281;DHT22;25048;49.590;11.026;2022-10-16T15:11:16;23.80;99.90
29281;DHT22;25048;49.590;11.026;2022-10-16T15:13:45;23.50;99.90
29281;DHT22;25048;49.590;11.026;2022-10-16T15:16:15;23.30;99.90
29281;DHT22;25048;49.590;11.026;2022-10-16T15:18:43;23.10;99.90
29281;DHT22;25048;49.590;11.026;2022-10-16T15:21:29;22.90;99.90
29281;DHT22;25048;49.590;11.026;2022-10-16T15:23:58;22.70;99.90
29281;DHT22;25048;49.590;11.026;2022-10-16T15:26:27;22.50;99.90
29281;DHT22;25048;49.590;11.026;2022-10-16T15:28:56;22.30;99.90
29281;DHT22;25048;49.590;11.026;2022-10-16T15:31:24;22.20;99.90
29281;DHT22;25048;49.590;11.026;2022-10-16T15:33:53;22.00;99.90
29281;DHT22;25048;49.590;11.026;2022-10-16T15:36:28;21.90;99.90
29281;DHT22;25048;49.590;11.026;2022-10-16T15:38:56;21.80;99.90
29281;DHT22;25048;49.590;11.026;2022-10-16T15:41:23;21.70;99.90
29281;DHT22;25048;49.590;11.026;2022-10-16T15:43:51;21.60;99.90
29281;DHT22;25048;49.590;11.026;2022-10-16T15:46:20;21.50;99.90
29281;DHT22;25048;49.590;11.026;2022-10-16T15:48:49;21.30;99.90
29281;DHT22;25048;49.590;11.026;2022-10-16T15:51:18;21.20;99.90
29281;DHT22;25048;49.590;11.026;2022-10-16T15:53:46;21.10;99.90
29281;DHT22;25048;49.590;11.026;2022-10-16T15:56:13;21.00;99.90
29281;DHT22;25048;49.590;11.026;2022-10-16T15:58:43;20.90;99.90
29281;DHT22;25048;49.590;11.026;2022-10-16T16:01:10;20.80;99.90
29281;DHT22;25048;49.590;11.026;2022-10-16T16:03:38;20.70;99.90
29281;DHT22;25048;49.590;11.026;2022-10-16T16:06:10;20.60;99.90
29281;DHT22;25048;49.590;11.026;2022-10-16T16:08:38;20.50;99.90
29281;DHT22;25048;49.590;11.026;2022-10-16T16:11:09;20.40;99.90
29281;DHT22;25048;49.590;11.026;2022-10-16T16:13:36;20.30;99.90
29281;DHT22;25048;49.590;11.026;2022-10-16T16:16:09;20.20;99.90
29281;DHT22;25048;49.590;11.026;2022-10-16T16:18:38;20.10;99.90
29281;DHT22;25048;49.590;11.026;2022-10-16T16:21:06;20.00;99.90
29281;DHT22;25048;49.590;11.026;2022-10-16T16:23:34;19.90;99.90
29281;DHT22;25048;49.590;11.026;2022-10-16T16:26:12;19.80;99.90
29281;DHT22;25048;49.590;11.026;2022-10-16T16:28:41;19.70;99.90
29281;DHT22;25048;49.590;11.026;2022-10-16T16:31:09;19.60;99.90
29281;DHT22;25048;49.590;11.026;2022-10-16T16:33:36;19.50;99.90
29281;DHT22;25048;49.590;11.026;2022-10-16T16:36:05;19.40;99.90
29281;DHT22;25048;49.590;11.026;2022-10-16T16:38:33;19.40;99.90
29281;DHT22;25048;49.590;11.026;2022-10-16T16:41:16;19.30;99.90
29281;DHT22;25048;49.590;11.026;2022-10-16T16:43:44;19.20;99.90
29281;DHT22;25048;49.590;11.026;2022-10-16T16:46:12;19.10;99.90
29281;DHT22;25048;49.590;11.026;2022-10-16T16:48:40;19.00;99.90
29281;DHT22;25048;49.590;11.026;2022-10-16T16:51:10;19.00;99.90
29281;DHT22;25048;49.590;11.026;2022-10-16T16:53:39;19.00;99.90
29281;DHT22;25048;49.590;11.026;2022-10-16T16:56:07;18.90;99.90